Time;durP1;ratioP1;P1;durP2;ratioP2;P2;SDS_P1;SDS_P2;PMS_P1;PMS_P2;Temp;Humidity;BMP_temperature;BMP_pressure;BME280_temperature;BME280_humidity;BME280_pressure;Samples;Min_cycle;Max_cycle;Signal;HPM_P1;HPM_P2
2023/07/20 00:01:28;;;;;;;2.78;1.75;;;15.90;99.90;;;;;;5093237;28;20511;-79
2023/07/20 00:03:55;;;;;;;2.83;1.80;;;15.90;99.90;;;;;;5093937;28;20225;-83
2023/07/20 00:06:23;;;;;;;3.35;2.00;;;15.70;99.90;;;;;;5091390;28;20220;-79
2023/07/20 00:08:50;;;;;;;1.85;1.70;;;15.80;99.90;;;;;;5090095;28;20219;-80
2023/07/20 00:11:17;;;;;;;1.95;1.70;;;15.80;99.90;;;;;;5093491;28;20632;-81
2023/07/20 00:13:45;;;;;;;3.35;2.05;;;15.80;99.90;;;;;;5099545;28;20593;-80
2023/07/20 00:16:12;;;;;;;4.47;1.88;;;15.90;99.90;;;;;;5100154;28;20190;-81
2023/07/20 00:18:39;;;;;;;2.53;2.10;;;15.70;99.90;;;;;;5102001;28;20204;-82
2023/07/20 00:21:06;;;;;;;2.03;1.80;;;15.70;99.90;;;;;;5101092;28;20201;-80
2023/07/20 00:23:33;;;;;;;2.13;1.95;;;15.70;99.90;;;;;;5100772;28;20214;-79
2023/07/20 00:25:59;;;;;;;1.90;1.80;;;15.60;99.90;;;;;;5100769;28;20317;-83
2023/07/20 00:28:26;;;;;;;3.33;2.10;;;15.60;99.90;;;;;;5100916;28;20202;-81
2023/07/20 00:30:54;;;;;;;2.80;1.75;;;15.40;99.90;;;;;;5101106;28;20221;-78
2023/07/20 00:33:21;;;;;;;1.75;1.52;;;15.50;99.90;;;;;;5101446;28;20226;-79
2023/07/20 00:35:48;;;;;;;3.53;1.65;;;15.30;99.90;;;;;;5101571;28;20193;-80
2023/07/20 00:38:15;;;;;;;1.92;1.73;;;15.40;99.90;;;;;;5099807;28;20231;-78
2023/07/20 00:40:42;;;;;;;3.55;1.85;;;15.20;99.90;;;;;;5101506;28;20201;-80
2023/07/20 00:43:09;;;;;;;1.85;1.75;;;15.30;99.90;;;;;;5082452;28;20960;-79
2023/07/20 00:45:37;;;;;;;4.28;1.98;;;15.50;99.90;;;;;;5080942;28;20260;-83
2023/07/20 00:48:07;;;;;;;2.13;1.50;;;15.70;99.90;;;;;;5101177;28;20352;-81
2023/07/20 00:50:35;;;;;;;3.22;1.92;;;15.30;99.90;;;;;;5105485;28;20217;-81
2023/07/20 00:53:04;;;;;;;2.22;1.77;;;15.20;99.90;;;;;;5105319;28;20249;-81
2023/07/20 00:55:32;;;;;;;3.67;1.63;;;15.30;99.90;;;;;;5106227;28;20201;-80
2023/07/20 00:57:59;;;;;;;3.13;1.77;;;15.20;99.90;;;;;;5104822;28;20197;-82
2023/07/20 01:00:26;;;;;;;1.88;1.77;;;15.10;99.90;;;;;;5105638;28;20212;-81
2023/07/20 01:02:53;;;;;;;2.55;2.00;;;15.10;99.90;;;;;;5105556;28;20221;-81
2023/07/20 01:05:21;;;;;;;3.03;1.50;;;15.20;99.90;;;;;;5104997;28;20202;-80
2023/07/20 01:07:56;;;;;;;3.10;1.75;;;15.10;99.90;;;;;;5105696;28;20265;-79
2023/07/20 01:10:30;;;;;;;2.13;1.90;;;15.10;99.90;;;;;;5106576;28;20673;-79
2023/07/20 01:12:58;;;;;;;2.45;1.88;;;15.40;99.90;;;;;;5085967;28;20221;-80
2023/07/20 01:15:25;;;;;;;3.58;1.80;;;15.30;99.90;;;;;;5085288;28;20229;-80
2023/07/20 01:17:51;;;;;;;2.30;2.05;;;15.20;99.90;;;;;;5096899;28;20213;-82
2023/07/20 01:20:22;;;;;;;2.60;1.73;;;15.20;99.90;;;;;;5107175;28;20202;-81
2023/07/20 01:23:15;;;;;;;2.30;1.70;;;15.30;99.90;;;;;;5099451;28;20726;-83
2023/07/20 01:26:01;;;;;;;3.15;1.65;;;15.10;99.90;;;;;;5086263;28;20220;-81
2023/07/20 01:28:46;;;;;;;3.08;1.75;;;15.20;99.90;;;;;;5084417;28;20202;-83
2023/07/20 01:31:24;;;;;;;2.45;1.83;;;15.20;99.90;;;;;;5105497;28;20201;-83
2023/07/20 01:33:53;;;;;;;2.22;1.65;;;15.20;99.90;;;;;;5104889;28;20271;-81
2023/07/20 01:36:22;;;;;;;4.45;1.95;;;15.10;99.90;;;;;;5103620;28;20212;-81
2023/07/20 01:38:50;;;;;;;1.98;1.55;;;14.90;99.90;;;;;;5104465;28;20201;-80
2023/07/20 01:41:17;;;;;;;1.58;1.42;;;14.80;99.90;;;;;;5103155;28;20208;-82
2023/07/20 01:43:44;;;;;;;1.67;1.55;;;14.80;99.90;;;;;;5104001;28;20710;-82
2023/07/20 01:46:11;;;;;;;1.90;1.33;;;14.70;99.90;;;;;;5103866;28;20579;-78
2023/07/20 01:48:39;;;;;;;1.50;1.40;;;14.70;99.90;;;;;;5104406;28;20202;-78
2023/07/20 01:51:06;;;;;;;1.77;1.60;;;14.80;99.90;;;;;;5096382;28;20297;-79
2023/07/20 01:53:33;;;;;;;3.90;2.00;;;14.80;99.90;;;;;;5084378;28;20308;-81
2023/07/20 01:56:00;;;;;;;2.92;1.50;;;14.80;99.90;;;;;;5088808;28;20232;-78
2023/07/20 01:58:27;;;;;;;2.22;1.70;;;14.90;99.90;;;;;;5084551;28;20198;-82
2023/07/20 02:00:54;;;;;;;2.75;1.75;;;14.70;99.90;;;;;;5104088;28;20202;-79
2023/07/20 02:03:23;;;;;;;2.80;1.40;;;14.70;99.90;;;;;;5104408;28;20222;-79
2023/07/20 02:05:51;;;;;;;1.65;1.38;;;14.80;99.90;;;;;;5083407;28;20195;-81
2023/07/20 02:08:19;;;;;;;2.55;1.33;;;14.80;99.90;;;;;;5081890;28;20632;-80
2023/07/20 02:10:46;;;;;;;2.45;1.52;;;14.80;99.90;;;;;;5085462;28;20240;-82
2023/07/20 02:13:13;;;;;;;2.38;1.58;;;14.70;99.90;;;;;;5085238;28;20226;-82
2023/07/20 02:15:40;;;;;;;2.13;1.80;;;14.90;99.90;;;;;;5100251;28;20579;-78
2023/07/20 02:18:07;;;;;;;4.00;1.77;;;14.90;99.90;;;;;;5104900;28;20198;-81
2023/07/20 02:20:34;;;;;;;3.45;2.38;;;14.80;99.90;;;;;;5103105;28;20201;-83
2023/07/20 02:23:02;;;;;;;2.40;1.58;;;14.70;99.90;;;;;;5104121;28;20584;-80
2023/07/20 02:25:29;;;;;;;5.45;1.77;;;14.80;99.90;;;;;;5104911;28;20205;-81
2023/07/20 02:27:58;;;;;;;2.20;2.00;;;14.90;99.90;;;;;;5103921;28;20594;-78
2023/07/20 02:30:24;;;;;;;3.75;2.00;;;14.70;99.90;;;;;;5099234;28;20202;-80
2023/07/20 02:32:51;;;;;;;3.90;2.28;;;14.70;99.90;;;;;;5095154;28;20288;-79
2023/07/20 02:35:18;;;;;;;3.50;2.00;;;14.70;99.90;;;;;;5100649;28;20237;-83
2023/07/20 02:37:45;;;;;;;3.45;1.58;;;14.70;99.90;;;;;;5100873;28;20236;-81
2023/07/20 02:40:13;;;;;;;3.97;1.80;;;14.70;99.90;;;;;;5101820;28;20255;-78
2023/07/20 02:42:40;;;;;;;2.15;1.55;;;14.80;99.90;;;;;;5094445;28;20225;-79
2023/07/20 02:45:08;;;;;;;4.45;1.50;;;14.80;99.90;;;;;;5094526;28;20212;-81
2023/07/20 02:47:35;;;;;;;2.75;1.90;;;14.80;99.90;;;;;;5092082;28;20225;-80
2023/07/20 02:50:02;;;;;;;3.88;1.70;;;14.80;99.90;;;;;;5083928;28;20194;-78
2023/07/20 02:52:29;;;;;;;4.13;2.00;;;14.90;99.90;;;;;;5078735;28;20222;-81
2023/07/20 02:54:56;;;;;;;8.18;2.00;;;15.00;99.90;;;;;;5089733;28;20202;-79
2023/07/20 02:57:24;;;;;;;2.78;1.63;;;15.10;99.90;;;;;;5098899;28;20284;-82
2023/07/20 02:59:51;;;;;;;5.65;1.80;;;15.10;99.90;;;;;;5098442;28;20209;-81
2023/07/20 03:02:18;;;;;;;2.78;1.38;;;14.90;99.90;;;;;;5099635;28;20316;-81
2023/07/20 03:04:45;;;;;;;3.70;1.40;;;15.00;99.90;;;;;;5099710;28;20286;-82
2023/07/20 03:07:11;;;;;;;5.57;1.50;;;14.90;99.90;;;;;;5098131;28;20263;-81
2023/07/20 03:09:39;;;;;;;4.35;1.80;;;14.90;99.90;;;;;;5100570;28;20261;-80
2023/07/20 03:12:07;;;;;;;1.48;1.27;;;15.00;99.90;;;;;;5105922;28;20694;-80
2023/07/20 03:14:35;;;;;;;6.25;2.10;;;15.10;99.90;;;;;;5104847;28;20198;-79
2023/07/20 03:17:02;;;;;;;9.30;5.72;;;15.00;99.90;;;;;;5104917;28;20204;-83
2023/07/20 03:19:29;;;;;;;6.05;1.95;;;15.00;99.90;;;;;;5105255;28;20284;-80
2023/07/20 03:21:56;;;;;;;3.60;1.50;;;14.90;99.90;;;;;;5102983;28;20292;-79
2023/07/20 03:24:23;;;;;;;3.30;1.38;;;15.00;99.90;;;;;;5100733;28;20700;-82
2023/07/20 03:26:50;;;;;;;4.05;1.75;;;14.90;99.90;;;;;;5100078;28;20201;-78
2023/07/20 03:29:17;;;;;;;6.25;1.67;;;14.90;99.90;;;;;;5092636;28;20202;-80
2023/07/20 03:31:45;;;;;;;4.03;1.90;;;14.90;99.90;;;;;;5090523;28;20301;-80
2023/07/20 03:34:12;;;;;;;3.28;1.75;;;15.00;99.90;;;;;;5091924;28;20206;-79
2023/07/20 03:36:38;;;;;;;9.07;1.98;;;15.00;99.90;;;;;;5090103;28;20216;-80
2023/07/20 03:39:05;;;;;;;1.80;1.70;;;15.00;99.90;;;;;;5087144;28;20647;-81
2023/07/20 03:41:32;;;;;;;5.05;2.17;;;15.20;99.90;;;;;;5100942;28;20202;-80
2023/07/20 03:43:59;;;;;;;5.82;1.92;;;15.20;99.90;;;;;;5096382;28;20222;-81
2023/07/20 03:46:26;;;;;;;5.10;2.47;;;15.30;99.90;;;;;;5098863;28;20591;-79
2023/07/20 03:48:54;;;;;;;4.68;1.60;;;15.20;99.90;;;;;;5102365;28;20208;-78
2023/07/20 03:51:20;;;;;;;2.10;1.90;;;15.40;99.90;;;;;;5099103;28;20210;-81
2023/07/20 03:53:47;;;;;;;4.53;2.08;;;15.30;99.90;;;;;;5101259;28;20249;-83
2023/07/20 03:56:14;;;;;;;2.97;1.83;;;15.30;99.90;;;;;;5100635;28;20262;-81
2023/07/20 03:58:41;;;;;;;5.25;1.92;;;15.30;99.90;;;;;;5101877;28;20278;-81
2023/07/20 04:01:09;;;;;;;5.70;1.90;;;15.40;99.90;;;;;;5101546;28;20665;-80
2023/07/20 04:03:36;;;;;;;5.78;1.90;;;15.30;99.90;;;;;;5102439;28;20218;-83
2023/07/20 04:06:04;;;;;;;5.82;2.00;;;15.30;99.90;;;;;;5102127;28;20205;-80
2023/07/20 04:08:31;;;;;;;6.63;1.75;;;15.40;99.90;;;;;;5101512;28;20222;-80
2023/07/20 04:10:57;;;;;;;7.10;1.83;;;15.40;99.90;;;;;;5101773;28;20219;-79
2023/07/20 04:13:24;;;;;;;6.13;1.90;;;15.40;99.90;;;;;;5099341;28;20245;-81
2023/07/20 04:15:52;;;;;;;7.45;1.77;;;15.30;99.90;;;;;;5099147;28;20232;-81
2023/07/20 04:18:19;;;;;;;8.35;2.00;;;15.50;99.90;;;;;;5098676;28;20198;-82
2023/07/20 04:20:46;;;;;;;5.47;1.70;;;15.50;99.90;;;;;;5098457;28;20221;-79
2023/07/20 04:23:14;;;;;;;4.70;1.58;;;15.60;99.90;;;;;;5094316;28;20220;-79
2023/07/20 04:25:41;;;;;;;5.28;2.25;;;15.60;99.90;;;;;;5103786;28;20201;-81
2023/07/20 04:28:11;;;;;;;9.30;2.47;;;15.60;99.90;;;;;;5104037;28;20228;-79
2023/07/20 04:30:38;;;;;;;5.93;2.47;;;15.70;99.90;;;;;;5107869;28;20685;-78
2023/07/20 04:33:05;;;;;;;7.85;2.65;;;15.70;99.90;;;;;;5108315;28;20225;-81
2023/07/20 04:35:49;;;;;;;4.95;2.50;;;15.70;99.90;;;;;;5109525;28;20212;-80
2023/07/20 04:38:18;;;;;;;6.63;2.33;;;15.60;99.90;;;;;;5108404;28;20205;-79
2023/07/20 04:40:45;;;;;;;8.45;2.20;;;15.70;99.90;;;;;;5106843;28;20632;-80
2023/07/20 04:43:12;;;;;;;7.95;2.53;;;15.70;99.90;;;;;;5102249;28;20257;-81
2023/07/20 04:45:39;;;;;;;9.63;2.58;;;15.60;99.90;;;;;;5101516;28;20205;-80
2023/07/20 04:48:09;;;;;;;9.07;2.72;;;15.60;99.90;;;;;;5103456;28;20308;-78
2023/07/20 04:50:36;;;;;;;7.65;2.30;;;15.60;99.90;;;;;;5104294;28;20290;-81
2023/07/20 04:53:03;;;;;;;9.50;2.80;;;15.40;99.90;;;;;;5107318;28;20221;-81
2023/07/20 04:55:33;;;;;;;11.23;2.40;;;15.40;99.90;;;;;;5109197;28;20203;-80
2023/07/20 04:58:00;;;;;;;7.05;2.22;;;15.30;99.90;;;;;;5109620;28;20199;-81
2023/07/20 05:00:27;;;;;;;7.32;2.33;;;15.30;99.90;;;;;;5108590;28;20214;-78
2023/07/20 05:02:54;;;;;;;6.40;2.38;;;15.40;99.90;;;;;;5108525;28;20639;-81
2023/07/20 05:05:20;;;;;;;2.92;1.50;;;15.40;99.90;;;;;;5109451;28;20264;-81
2023/07/20 05:07:47;;;;;;;6.60;1.70;;;15.20;99.90;;;;;;5107155;28;20221;-80
2023/07/20 05:10:14;;;;;;;4.30;1.75;;;15.20;99.90;;;;;;5109368;28;20273;-81
2023/07/20 05:12:42;;;;;;;2.20;1.55;;;15.00;99.90;;;;;;5108905;28;20218;-82
2023/07/20 05:15:10;;;;;;;1.98;1.45;;;15.00;99.90;;;;;;5110396;28;20212;-80
2023/07/20 05:17:37;;;;;;;1.40;1.20;;;15.00;99.90;;;;;;5109684;28;20240;-81
2023/07/20 05:20:05;;;;;;;1.90;1.38;;;14.90;99.90;;;;;;5111234;28;20205;-80
2023/07/20 05:22:31;;;;;;;1.65;1.55;;;14.90;99.90;;;;;;5110578;28;20251;-82
2023/07/20 05:24:58;;;;;;;4.43;1.50;;;15.00;99.90;;;;;;5111063;28;20225;-81
2023/07/20 05:27:25;;;;;;;1.30;1.20;;;15.00;99.90;;;;;;5110241;28;20224;-81
2023/07/20 05:29:55;;;;;;;2.28;1.73;;;15.00;99.90;;;;;;5111467;28;20288;-81
2023/07/20 05:32:22;;;;;;;1.13;1.13;;;14.90;99.90;;;;;;5111023;28;20688;-81
2023/07/20 05:34:52;;;;;;;2.00;1.63;;;14.80;99.90;;;;;;5109389;28;20205;-81
2023/07/20 05:37:18;;;;;;;2.05;0.93;;;14.90;99.90;;;;;;5110448;28;20272;-81
2023/07/20 05:39:45;;;;;;;1.60;1.50;;;14.90;99.90;;;;;;5109776;28;20274;-80
2023/07/20 05:42:12;;;;;;;2.40;1.42;;;14.80;99.90;;;;;;5108710;28;20304;-81
2023/07/20 05:44:39;;;;;;;6.15;1.75;;;14.80;99.90;;;;;;5108518;28;20216;-79
2023/07/20 05:47:08;;;;;;;1.55;1.45;;;14.70;99.90;;;;;;5107388;28;20261;-81
2023/07/20 05:49:35;;;;;;;1.90;1.50;;;14.80;99.90;;;;;;5108160;28;20212;-79
2023/07/20 05:52:02;;;;;;;2.92;1.55;;;14.90;99.90;;;;;;5107326;28;20257;-82
2023/07/20 05:54:29;;;;;;;3.05;1.55;;;14.80;99.90;;;;;;5107620;28;20208;-80
2023/07/20 05:56:56;;;;;;;1.70;1.40;;;14.60;99.90;;;;;;5106446;28;20202;-81
2023/07/20 05:59:23;;;;;;;3.78;1.95;;;14.80;99.90;;;;;;5105897;28;20206;-82
2023/07/20 06:01:50;;;;;;;3.28;1.85;;;14.80;99.90;;;;;;5094263;28;20206;-81
2023/07/20 06:04:18;;;;;;;2.65;2.45;;;14.80;99.90;;;;;;5102295;28;20198;-81
2023/07/20 06:06:46;;;;;;;3.08;2.70;;;14.80;99.90;;;;;;5098543;28;20202;-82
2023/07/20 06:09:13;;;;;;;3.35;2.20;;;14.70;99.90;;;;;;5109170;28;20214;-81
2023/07/20 06:11:40;;;;;;;3.30;2.50;;;14.90;99.90;;;;;;5106906;28;20237;-80
2023/07/20 06:14:06;;;;;;;3.03;2.63;;;14.80;99.90;;;;;;5101783;28;20213;-81
2023/07/20 06:16:33;;;;;;;3.55;3.15;;;14.80;99.90;;;;;;5107329;28;20186;-81
2023/07/20 06:19:01;;;;;;;3.53;3.00;;;15.00;99.90;;;;;;5107657;28;20562;-81
2023/07/20 06:21:29;;;;;;;3.65;3.22;;;15.00;99.90;;;;;;5099481;28;20261;-81
2023/07/20 06:23:56;;;;;;;3.63;3.10;;;15.30;99.90;;;;;;5088578;28;20242;-81
2023/07/20 06:26:24;;;;;;;4.10;3.50;;;15.10;99.90;;;;;;5096381;28;20233;-81
2023/07/20 06:28:51;;;;;;;5.10;3.22;;;15.20;99.90;;;;;;5107960;28;20275;-81
2023/07/20 06:31:18;;;;;;;3.65;3.35;;;15.10;99.90;;;;;;5109744;28;20225;-81
2023/07/20 06:33:45;;;;;;;3.53;3.22;;;15.30;99.90;;;;;;5109396;28;20245;-79
2023/07/20 06:36:11;;;;;;;4.18;3.15;;;15.30;99.90;;;;;;5109434;28;20194;-79
2023/07/20 06:38:39;;;;;;;4.18;3.28;;;15.60;99.90;;;;;;5108505;28;20588;-80
2023/07/20 06:41:06;;;;;;;4.63;3.20;;;15.60;99.90;;;;;;5108117;28;20288;-79
2023/07/20 06:43:33;;;;;;;5.57;2.97;;;15.50;99.90;;;;;;5107981;28;20233;-80
2023/07/20 06:46:00;;;;;;;3.38;3.03;;;15.60;99.90;;;;;;5106818;28;20208;-81
2023/07/20 06:48:27;;;;;;;3.22;2.92;;;15.60;99.90;;;;;;5107118;28;20228;-82
2023/07/20 06:50:54;;;;;;;3.92;2.95;;;15.70;99.90;;;;;;5103424;28;20221;-79
2023/07/20 06:53:21;;;;;;;3.08;2.83;;;15.60;99.90;;;;;;5098182;28;20709;-81
2023/07/20 06:55:49;;;;;;;3.05;2.85;;;15.60;99.90;;;;;;5107781;28;20568;-78
2023/07/20 06:58:15;;;;;;;2.75;2.20;;;15.50;99.90;;;;;;5106945;28;20315;-78
2023/07/20 07:00:42;;;;;;;3.30;2.33;;;15.60;99.90;;;;;;5107214;28;20205;-79
2023/07/20 07:03:09;;;;;;;3.13;2.70;;;15.80;99.90;;;;;;5106793;28;20229;-80
2023/07/20 07:05:39;;;;;;;2.95;2.22;;;15.80;99.90;;;;;;5106895;28;20232;-82
2023/07/20 07:08:06;;;;;;;3.78;2.25;;;15.80;99.90;;;;;;5105863;28;20290;-81
2023/07/20 07:10:33;;;;;;;3.63;2.17;;;15.80;99.90;;;;;;5105976;28;20197;-81
2023/07/20 07:13:01;;;;;;;4.50;2.20;;;15.80;99.90;;;;;;5107017;28;20224;-81
2023/07/20 07:15:28;;;;;;;2.47;2.28;;;15.90;99.90;;;;;;5106632;28;20281;-81
2023/07/20 07:17:55;;;;;;;3.90;2.28;;;15.80;99.90;;;;;;5107854;28;20204;-80
2023/07/20 07:20:23;;;;;;;4.15;2.97;;;15.90;99.90;;;;;;5107772;28;20202;-81
2023/07/20 07:22:52;;;;;;;3.75;2.63;;;15.80;99.90;;;;;;5087435;28;20222;-80
2023/07/20 07:25:19;;;;;;;4.05;2.85;;;15.70;99.90;;;;;;5100847;28;20209;-82
2023/07/20 07:27:46;;;;;;;4.75;2.80;;;16.00;99.90;;;;;;5103085;28;20217;-80
2023/07/20 07:30:15;;;;;;;3.00;2.80;;;16.20;99.90;;;;;;5091105;28;20228;-81
2023/07/20 07:32:42;;;;;;;3.10;2.90;;;16.50;99.90;;;;;;5096546;28;20222;-80
2023/07/20 07:35:09;;;;;;;3.17;2.90;;;16.50;99.90;;;;;;5094165;28;20722;-79
2023/07/20 07:37:36;;;;;;;3.90;3.50;;;16.70;99.90;;;;;;5101928;28;20225;-81
2023/07/20 07:40:04;;;;;;;3.20;3.00;;;16.70;99.90;;;;;;5094428;28;20263;-81
2023/07/20 07:42:31;;;;;;;5.03;3.60;;;16.80;99.90;;;;;;5086849;28;20218;-80
2023/07/20 07:44:58;;;;;;;3.30;3.00;;;16.80;99.90;;;;;;5084821;28;20293;-81
2023/07/20 07:47:26;;;;;;;5.28;3.20;;;16.60;99.90;;;;;;5091508;28;20684;-82
2023/07/20 07:49:53;;;;;;;3.58;3.10;;;16.60;99.90;;;;;;5104185;28;20246;-81
2023/07/20 07:52:19;;;;;;;3.50;2.90;;;16.60;99.90;;;;;;5103433;28;20297;-81
2023/07/20 07:54:46;;;;;;;3.30;3.00;;;16.70;99.90;;;;;;5103173;28;20212;-82
2023/07/20 07:57:14;;;;;;;3.55;3.25;;;16.90;99.90;;;;;;5102155;28;20292;-82
2023/07/20 07:59:41;;;;;;;2.97;2.75;;;16.90;99.90;;;;;;5104966;28;20202;-79
2023/07/20 08:02:07;;;;;;;4.18;3.13;;;17.30;99.90;;;;;;5103638;28;20312;-79
2023/07/20 08:04:36;;;;;;;3.22;2.95;;;17.20;99.90;;;;;;5102901;28;20232;-81
2023/07/20 08:07:05;;;;;;;3.53;3.22;;;17.30;99.90;;;;;;5103846;28;20292;-79
2023/07/20 08:09:32;;;;;;;3.35;2.50;;;17.30;99.90;;;;;;5102487;28;20248;-80
2023/07/20 08:11:59;;;;;;;3.28;2.25;;;17.40;99.90;;;;;;5102530;28;20284;-79
2023/07/20 08:14:26;;;;;;;2.50;2.22;;;17.50;99.90;;;;;;5104126;28;20209;-80
2023/07/20 08:16:53;;;;;;;2.60;2.42;;;17.20;99.90;;;;;;5102904;28;20205;-79
2023/07/20 08:19:21;;;;;;;2.40;2.20;;;17.10;99.90;;;;;;5100487;28;20201;-79
2023/07/20 08:21:49;;;;;;;2.20;2.10;;;17.30;99.90;;;;;;5103650;28;20688;-78
2023/07/20 08:24:16;;;;;;;2.60;2.38;;;17.60;99.90;;;;;;5100356;28;20582;-78
2023/07/20 08:26:43;;;;;;;2.22;2.08;;;18.00;99.90;;;;;;5102001;28;20213;-80
2023/07/20 08:29:09;;;;;;;2.17;1.98;;;18.00;99.90;;;;;;5103064;28;20222;-80
2023/07/20 08:31:36;;;;;;;2.40;2.00;;;17.80;99.90;;;;;;5094717;28;20204;-80
2023/07/20 08:34:03;;;;;;;2.33;2.22;;;17.70;99.90;;;;;;5087109;28;20229;-79
2023/07/20 08:36:31;;;;;;;2.00;1.85;;;17.90;99.90;;;;;;5095002;28;20894;-79
2023/07/20 08:38:59;;;;;;;3.65;2.30;;;17.90;99.90;;;;;;5103120;28;20265;-80
2023/07/20 08:41:26;;;;;;;2.58;2.38;;;17.80;99.90;;;;;;5100800;28;20201;-80
2023/07/20 08:43:57;;;;;;;2.95;2.70;;;17.90;99.90;;;;;;5100373;28;20698;-81
2023/07/20 08:46:26;;;;;;;3.15;2.92;;;17.90;99.90;;;;;;5100581;28;20202;-80
2023/07/20 08:48:53;;;;;;;3.20;3.00;;;17.80;99.90;;;;;;5100978;28;20229;-80
2023/07/20 08:51:22;;;;;;;3.42;3.20;;;18.00;99.90;;;;;;5099989;28;20220;-80
2023/07/20 08:53:51;;;;;;;3.75;3.03;;;18.00;99.90;;;;;;5101515;28;20228;-80
2023/07/20 08:56:21;;;;;;;2.90;2.70;;;18.00;99.90;;;;;;5095445;28;20277;-80
2023/07/20 08:58:48;;;;;;;3.53;3.22;;;18.30;99.90;;;;;;5088860;28;20210;-80
2023/07/20 09:01:15;;;;;;;3.10;2.80;;;18.40;99.90;;;;;;5081343;28;20205;-79
2023/07/20 09:03:43;;;;;;;2.30;2.10;;;18.50;99.90;;;;;;5082132;28;20222;-79
2023/07/20 09:06:10;;;;;;;3.42;2.17;;;18.90;99.90;;;;;;5090340;28;20216;-81
2023/07/20 09:08:39;;;;;;;1.98;1.83;;;19.20;99.90;;;;;;5096314;28;20228;-80
2023/07/20 09:11:06;;;;;;;2.08;1.98;;;19.20;99.90;;;;;;5101582;28;20206;-80
2023/07/20 09:13:35;;;;;;;1.90;1.80;;;19.50;99.90;;;;;;5101593;28;20228;-81
2023/07/20 09:16:03;;;;;;;2.38;1.95;;;20.00;99.90;;;;;;5103605;28;20618;-79
2023/07/20 09:18:34;;;;;;;2.10;2.00;;;20.40;99.90;;;;;;5103219;28;20206;-78
2023/07/20 09:21:03;;;;;;;2.47;1.83;;;20.40;99.90;;;;;;5105108;28;20251;-81
2023/07/20 09:23:34;;;;;;;2.05;1.83;;;20.40;99.90;;;;;;5102333;28;20225;-78
2023/07/20 09:26:00;;;;;;;1.60;1.60;;;20.70;99.90;;;;;;5102760;28;20206;-80
2023/07/20 09:28:28;;;;;;;1.63;1.50;;;20.90;99.90;;;;;;5087385;28;20591;-80
2023/07/20 09:30:58;;;;;;;2.13;1.42;;;20.20;99.90;;;;;;5098585;28;20251;-79
2023/07/20 09:33:25;;;;;;;1.70;1.60;;;19.80;99.90;;;;;;5101011;28;20228;-80
2023/07/20 09:35:52;;;;;;;1.65;1.55;;;20.00;99.90;;;;;;5100831;28;20206;-80
2023/07/20 09:38:19;;;;;;;1.60;1.50;;;20.70;99.90;;;;;;5086562;28;20212;-81
2023/07/20 09:40:46;;;;;;;1.50;1.40;;;21.30;99.90;;;;;;5082429;28;20206;-79
2023/07/20 09:43:13;;;;;;;1.50;1.40;;;21.60;99.90;;;;;;5096143;28;20233;-79
2023/07/20 09:45:43;;;;;;;1.60;1.50;;;21.70;99.90;;;;;;5100069;28;20218;-78
2023/07/20 09:48:12;;;;;;;2.17;1.38;;;21.80;99.90;;;;;;5099413;28;20237;-80
2023/07/20 09:50:43;;;;;;;1.38;1.27;;;22.30;99.90;;;;;;5100824;28;20197;-78
2023/07/20 09:53:13;;;;;;;1.55;1.20;;;22.50;99.90;;;;;;5098802;28;20226;-80
2023/07/20 09:55:41;;;;;;;1.33;1.20;;;21.40;83.10;;;;;;5100944;28;20255;-79
2023/07/20 09:58:09;;;;;;;1.98;1.50;;;21.50;94.00;;;;;;5100101;28;20205;-81
2023/07/20 10:00:38;;;;;;;1.27;1.17;;;22.20;98.20;;;;;;5101462;28;20255;-82
2023/07/20 10:03:05;;;;;;;0.95;0.95;;;22.80;99.90;;;;;;5099958;28;20218;-81
2023/07/20 10:05:37;;;;;;;2.30;1.17;;;22.90;60.90;;;;;;5101005;28;20278;-80
2023/07/20 10:08:05;;;;;;;2.08;1.45;;;22.40;11.50;;;;;;5090098;28;20289;-80
2023/07/20 10:10:35;;;;;;;1.85;1.00;;;22.20;41.00;;;;;;5093412;28;20232;-78
2023/07/20 10:13:03;;;;;;;0.95;0.95;;;22.60;22.20;;;;;;5090042;28;20226;-81
2023/07/20 10:15:36;;;;;;;1.48;1.02;;;22.30;1.00;;;;;;5080197;28;20202;-79
2023/07/20 10:18:10;;;;;;;1.38;1.23;;;22.40;4.40;;;;;;5096385;28;20292;-79
2023/07/20 10:20:41;;;;;;;1.20;0.80;;;22.40;1.00;;;;;;5099413;28;20208;-81
2023/07/20 10:23:08;;;;;;;1.27;0.88;;;22.00;1.00;;;;;;5097060;28;20232;-80
2023/07/20 10:25:37;;;;;;;0.82;0.82;;;21.60;1.00;;;;;;5101849;28;20223;-80
2023/07/20 10:28:06;;;;;;;1.58;0.85;;;21.50;1.00;;;;;;5100520;28;20228;-80
2023/07/20 10:30:35;;;;;;;1.10;1.00;;;22.00;1.00;;;;;;5100430;28;20233;-80
2023/07/20 10:33:03;;;;;;;1.15;0.98;;;21.80;1.00;;;;;;5100987;28;20259;-78
2023/07/20 10:35:30;;;;;;;1.90;1.20;;;22.20;1.00;;;;;;5100092;28;20235;-81
2023/07/20 10:38:03;;;;;;;2.03;1.10;;;22.80;1.00;;;;;;5099771;28;20213;-82
2023/07/20 10:40:32;;;;;;;0.85;0.80;;;22.60;1.00;;;;;;5101517;28;20661;-80
2023/07/20 10:43:04;;;;;;;1.27;0.93;;;22.60;1.00;;;;;;5099712;28;20228;-79
2023/07/20 10:45:41;;;;;;;0.68;0.65;;;22.40;1.00;;;;;;5099703;28;20205;-78
2023/07/20 10:48:14;;;;;;;0.70;0.70;;;22.50;1.00;;;;;;5099379;28;20737;-79
2023/07/20 10:50:42;;;;;;;0.77;0.77;;;22.40;1.00;;;;;;5099134;28;20225;-80
2023/07/20 10:53:15;;;;;;;1.48;0.73;;;23.10;1.00;;;;;;5099075;28;20251;-79
2023/07/20 10:55:43;;;;;;;0.60;0.60;;;23.70;1.00;;;;;;5100538;28;20247;-81
2023/07/20 10:58:12;;;;;;;1.33;0.60;;;23.90;1.00;;;;;;5099800;28;20197;-79
2023/07/20 11:00:55;;;;;;;0.70;0.70;;;24.20;1.00;;;;;;5101289;28;20198;-81
2023/07/20 11:03:29;;;;;;;1.23;0.80;;;23.30;1.00;;;;;;5100830;28;20228;-79
2023/07/20 11:05:57;;;;;;;0.75;0.73;;;22.90;1.00;;;;;;5098904;28;20197;-80
2023/07/20 11:08:42;;;;;;;1.42;1.00;;;22.60;1.00;;;;;;5097911;28;20204;-78
2023/07/20 11:11:30;;;;;;;1.08;0.90;;;23.00;1.00;;;;;;5098588;28;20213;-81
2023/07/20 11:13:58;;;;;;;0.63;0.50;;;23.40;1.00;;;;;;5090433;28;20253;-80
2023/07/20 11:16:36;;;;;;;1.10;0.90;;;22.60;1.00;;;;;;5095374;28;20190;-80
2023/07/20 11:19:04;;;;;;;0.50;0.50;;;23.80;1.00;;;;;;5095463;28;20197;-82
2023/07/20 11:21:36;;;;;;;0.90;0.90;;;24.00;1.00;;;;;;5095474;28;20216;-80
2023/07/20 11:24:06;;;;;;;1.55;0.93;;;24.30;1.00;;;;;;5095122;28;20762;-79
2023/07/20 11:26:41;;;;;;;0.88;0.60;;;23.20;1.00;;;;;;5094812;28;20217;-80
2023/07/20 11:29:08;;;;;;;2.17;0.60;;;22.70;1.00;;;;;;5095667;28;20224;-80
2023/07/20 11:31:36;;;;;;;0.63;0.63;;;22.50;1.00;;;;;;5095132;28;20205;-80
2023/07/20 11:34:03;;;;;;;1.00;0.90;;;22.50;1.00;;;;;;5095360;28;20253;-80
2023/07/20 11:36:30;;;;;;;1.55;0.90;;;22.30;1.00;;;;;;5094740;28;20201;-80
2023/07/20 11:38:59;;;;;;;0.90;0.77;;;22.00;1.00;;;;;;5094526;28;20193;-79
2023/07/20 11:41:27;;;;;;;1.00;0.90;;;22.00;1.00;;;;;;5095037;28;20220;-80
2023/07/20 11:43:55;;;;;;;2.95;0.95;;;21.90;1.00;;;;;;5094739;28;20221;-79
2023/07/20 11:46:22;;;;;;;2.42;0.93;;;21.70;1.00;;;;;;5094628;28;20202;-81
2023/07/20 11:48:49;;;;;;;1.17;0.65;;;22.10;1.00;;;;;;5094721;28;20198;-79
2023/07/20 11:51:17;;;;;;;0.98;0.82;;;22.00;1.00;;;;;;5094909;28;20197;-82
2023/07/20 11:53:45;;;;;;;1.17;1.05;;;22.70;1.00;;;;;;5095416;28;20351;-79
2023/07/20 11:56:12;;;;;;;1.42;0.68;;;23.10;1.00;;;;;;5094845;28;20201;-81
2023/07/20 11:58:47;;;;;;;1.77;1.05;;;23.70;1.00;;;;;;5094487;28;20205;-79
2023/07/20 12:01:14;;;;;;;1.45;0.93;;;23.60;1.00;;;;;;5096415;28;20227;-78
2023/07/20 12:03:43;;;;;;;0.77;0.55;;;24.00;1.00;;;;;;5097878;28;20236;-79
2023/07/20 12:06:10;;;;;;;0.57;0.55;;;23.50;1.00;;;;;;5093500;28;20198;-81
2023/07/20 12:08:40;;;;;;;1.08;0.98;;;23.00;1.00;;;;;;5093193;28;20208;-81
2023/07/20 12:11:08;;;;;;;1.92;1.15;;;22.80;1.00;;;;;;5090347;28;20218;-79
2023/07/20 12:13:45;;;;;;;1.48;0.60;;;22.80;1.00;;;;;;5082128;28;20221;-77
2023/07/20 12:16:14;;;;;;;2.55;1.10;;;22.30;1.00;;;;;;5094474;28;20556;-78
2023/07/20 12:18:41;;;;;;;1.13;0.85;;;22.10;1.00;;;;;;5078093;28;20232;-79
2023/07/20 12:21:08;;;;;;;2.08;1.00;;;21.80;1.00;;;;;;5084349;28;20193;-78
2023/07/20 12:23:42;;;;;;;1.15;1.13;;;21.70;1.00;;;;;;5091568;28;20529;-78
2023/07/20 12:26:10;;;;;;;3.28;1.20;;;21.50;1.00;;;;;;5095365;28;20209;-79
2023/07/20 12:28:41;;;;;;;1.77;1.48;;;21.90;1.00;;;;;;5100097;28;20301;-78
2023/07/20 12:31:10;;;;;;;1.23;0.98;;;22.40;1.00;;;;;;5100764;28;20221;-80
2023/07/20 12:33:37;;;;;;;2.63;1.13;;;22.90;1.00;;;;;;5100378;28;20316;-78
2023/07/20 12:36:06;;;;;;;5.72;3.35;;;23.40;1.00;;;;;;5098573;28;20556;-83
2023/07/20 12:38:33;;;;;;;1.00;1.00;;;22.90;1.00;;;;;;5096778;28;20209;-80
2023/07/20 12:41:01;;;;;;;1.13;1.02;;;23.70;1.00;;;;;;5098491;28;20186;-79
2023/07/20 12:43:28;;;;;;;1.02;0.95;;;24.10;1.00;;;;;;5100256;28;20228;-80
2023/07/20 12:45:55;;;;;;;1.13;0.95;;;24.40;1.00;;;;;;5100910;28;20643;-79
2023/07/20 12:48:23;;;;;;;0.80;0.80;;;24.30;1.00;;;;;;5101560;28;20208;-78
2023/07/20 12:50:50;;;;;;;1.55;0.85;;;23.90;1.00;;;;;;5095660;28;20243;-78
2023/07/20 12:53:17;;;;;;;1.48;0.90;;;23.70;1.00;;;;;;5101923;28;20221;-80